sensor_id;sensor_type;location;lat;lon;timestamp;temperature;humidity
12769;DHT22;6448;48.916;8.990;2023-06-10T00:01:00;25.80;38.80
12769;DHT22;6448;48.916;8.990;2023-06-10T00:02:02;25.80;38.70
12769;DHT22;6448;48.916;8.990;2023-06-10T00:03:04;25.80;38.80
12769;DHT22;6448;48.916;8.990;2023-06-10T00:04:05;25.70;38.70
12769;DHT22;6448;48.916;8.990;2023-06-10T00:05:08;25.90;38.80
12769;DHT22;6448;48.916;8.990;2023-06-10T00:06:10;25.80;38.90
12769;DHT22;6448;48.916;8.990;2023-06-10T00:07:11;25.80;38.90
12769;DHT22;6448;48.916;8.990;2023-06-10T00:08:12;25.70;38.90
12769;DHT22;6448;48.916;8.990;2023-06-10T00:09:16;25.70;38.90
12769;DHT22;6448;48.916;8.990;2023-06-10T00:10:18;25.70;39.00
12769;DHT22;6448;48.916;8.990;2023-06-10T00:11:19;25.70;39.00
12769;DHT22;6448;48.916;8.990;2023-06-10T00:12:21;25.60;38.90
12769;DHT22;6448;48.916;8.990;2023-06-10T00:13:22;25.60;38.90
12769;DHT22;6448;48.916;8.990;2023-06-10T00:14:24;25.60;39.00
12769;DHT22;6448;48.916;8.990;2023-06-10T00:15:25;25.60;39.00
12769;DHT22;6448;48.916;8.990;2023-06-10T00:16:27;25.60;39.00
12769;DHT22;6448;48.916;8.990;2023-06-10T00:17:28;25.50;39.10
12769;DHT22;6448;48.916;8.990;2023-06-10T00:18:29;25.50;39.20
12769;DHT22;6448;48.916;8.990;2023-06-10T00:19:31;25.50;39.20
12769;DHT22;6448;48.916;8.990;2023-06-10T00:20:35;25.50;39.20
12769;DHT22;6448;48.916;8.990;2023-06-10T00:21:38;25.40;39.10
12769;DHT22;6448;48.916;8.990;2023-06-10T00:22:40;25.50;39.20
12769;DHT22;6448;48.916;8.990;2023-06-10T00:23:46;25.40;39.30
12769;DHT22;6448;48.916;8.990;2023-06-10T00:24:47;25.40;39.40
12769;DHT22;6448;48.916;8.990;2023-06-10T00:25:48;25.40;39.40
12769;DHT22;6448;48.916;8.990;2023-06-10T00:26:50;25.40;39.40
12769;DHT22;6448;48.916;8.990;2023-06-10T00:27:51;25.20;39.40
12769;DHT22;6448;48.916;8.990;2023-06-10T00:28:53;25.30;39.40
12769;DHT22;6448;48.916;8.990;2023-06-10T00:29:55;25.30;39.50
12769;DHT22;6448;48.916;8.990;2023-06-10T00:30:58;25.30;39.60
12769;DHT22;6448;48.916;8.990;2023-06-10T00:31:59;25.20;39.60
12769;DHT22;6448;48.916;8.990;2023-06-10T00:33:01;25.20;39.70
12769;DHT22;6448;48.916;8.990;2023-06-10T00:34:02;25.30;39.90
12769;DHT22;6448;48.916;8.990;2023-06-10T00:35:06;25.20;39.90
12769;DHT22;6448;48.916;8.990;2023-06-10T00:36:09;25.20;40.00
12769;DHT22;6448;48.916;8.990;2023-06-10T00:37:10;25.20;40.00
12769;DHT22;6448;48.916;8.990;2023-06-10T00:38:13;25.10;39.90
12769;DHT22;6448;48.916;8.990;2023-06-10T00:39:15;25.10;39.90
12769;DHT22;6448;48.916;8.990;2023-06-10T00:40:17;25.10;40.00
12769;DHT22;6448;48.916;8.990;2023-06-10T00:41:18;25.10;40.00
12769;DHT22;6448;48.916;8.990;2023-06-10T00:42:19;25.10;40.00
12769;DHT22;6448;48.916;8.990;2023-06-10T00:43:23;25.10;40.00
12769;DHT22;6448;48.916;8.990;2023-06-10T00:44:23;25.00;40.00
12769;DHT22;6448;48.916;8.990;2023-06-10T00:45:25;25.00;40.00
12769;DHT22;6448;48.916;8.990;2023-06-10T00:46:26;25.00;40.00
12769;DHT22;6448;48.916;8.990;2023-06-10T00:47:30;25.00;40.00
12769;DHT22;6448;48.916;8.990;2023-06-10T00:48:32;25.00;40.00
12769;DHT22;6448;48.916;8.990;2023-06-10T00:49:34;25.00;40.00
12769;DHT22;6448;48.916;8.990;2023-06-10T00:50:35;25.00;40.70
12769;DHT22;6448;48.916;8.990;2023-06-10T00:51:41;25.00;40.10
12769;DHT22;6448;48.916;8.990;2023-06-10T00:52:42;25.00;40.10
12769;DHT22;6448;48.916;8.990;2023-06-10T00:53:45;24.90;40.10
12769;DHT22;6448;48.916;8.990;2023-06-10T00:54:46;24.90;40.10
12769;DHT22;6448;48.916;8.990;2023-06-10T00:55:49;24.90;40.20
12769;DHT22;6448;48.916;8.990;2023-06-10T00:56:50;24.90;40.20
12769;DHT22;6448;48.916;8.990;2023-06-10T00:57:53;24.80;40.20
12769;DHT22;6448;48.916;8.990;2023-06-10T00:58:54;24.80;40.20
12769;DHT22;6448;48.916;8.990;2023-06-10T00:59:57;24.80;40.30
12769;DHT22;6448;48.916;8.990;2023-06-10T01:00:58;24.80;40.30
12769;DHT22;6448;48.916;8.990;2023-06-10T01:02:03;24.80;40.40
12769;DHT22;6448;48.916;8.990;2023-06-10T01:03:04;24.80;40.50
12769;DHT22;6448;48.916;8.990;2023-06-10T01:04:08;24.80;40.50
12769;DHT22;6448;48.916;8.990;2023-06-10T01:05:10;24.80;40.50
12769;DHT22;6448;48.916;8.990;2023-06-10T01:06:21;24.80;40.50
12769;DHT22;6448;48.916;8.990;2023-06-10T01:07:33;24.80;40.60
12769;DHT22;6448;48.916;8.990;2023-06-10T01:08:43;24.70;40.60
12769;DHT22;6448;48.916;8.990;2023-06-10T01:09:53;24.70;40.60
12769;DHT22;6448;48.916;8.990;2023-06-10T01:10:59;24.70;40.70
12769;DHT22;6448;48.916;8.990;2023-06-10T01:12:05;24.60;40.70
12769;DHT22;6448;48.916;8.990;2023-06-10T01:13:10;24.60;40.70
12769;DHT22;6448;48.916;8.990;2023-06-10T01:14:13;24.60;40.70
12769;DHT22;6448;48.916;8.990;2023-06-10T01:15:16;24.60;40.70
12769;DHT22;6448;48.916;8.990;2023-06-10T01:16:17;24.60;40.70
12769;DHT22;6448;48.916;8.990;2023-06-10T01:17:19;24.60;40.70
12769;DHT22;6448;48.916;8.990;2023-06-10T01:18:20;24.60;40.80
12769;DHT22;6448;48.916;8.990;2023-06-10T01:19:22;24.60;40.80
12769;DHT22;6448;48.916;8.990;2023-06-10T01:20:25;24.50;40.80
12769;DHT22;6448;48.916;8.990;2023-06-10T01:21:28;24.50;40.80
12769;DHT22;6448;48.916;8.990;2023-06-10T01:22:29;24.50;40.80
12769;DHT22;6448;48.916;8.990;2023-06-10T01:23:32;24.50;40.80
12769;DHT22;6448;48.916;8.990;2023-06-10T01:24:33;24.50;40.80
12769;DHT22;6448;48.916;8.990;2023-06-10T01:25:37;24.50;40.80
12769;DHT22;6448;48.916;8.990;2023-06-10T01:26:38;24.40;40.80
12769;DHT22;6448;48.916;8.990;2023-06-10T01:27:42;24.40;40.80
12769;DHT22;6448;48.916;8.990;2023-06-10T01:28:47;24.40;41.60
12769;DHT22;6448;48.916;8.990;2023-06-10T01:29:58;24.40;40.90
12769;DHT22;6448;48.916;8.990;2023-06-10T01:31:08;24.40;41.00
12769;DHT22;6448;48.916;8.990;2023-06-10T01:32:18;24.40;41.10
12769;DHT22;6448;48.916;8.990;2023-06-10T01:33:26;24.30;41.10
12769;DHT22;6448;48.916;8.990;2023-06-10T01:34:31;24.30;41.10
12769;DHT22;6448;48.916;8.990;2023-06-10T01:35:36;24.30;41.10
12769;DHT22;6448;48.916;8.990;2023-06-10T01:36:41;24.30;41.10
12769;DHT22;6448;48.916;8.990;2023-06-10T01:37:45;24.30;41.10
12769;DHT22;6448;48.916;8.990;2023-06-10T01:38:47;24.30;41.10
12769;DHT22;6448;48.916;8.990;2023-06-10T01:39:50;24.30;41.10
12769;DHT22;6448;48.916;8.990;2023-06-10T01:40:53;24.30;41.10
12769;DHT22;6448;48.916;8.990;2023-06-10T01:41:55;24.30;41.10
12769;DHT22;6448;48.916;8.990;2023-06-10T01:42:57;24.30;41.10
12769;DHT22;6448;48.916;8.990;2023-06-10T01:43:58;24.20;41.10
12769;DHT22;6448;48.916;8.990;2023-06-10T01:45:00;24.20;41.10
12769;DHT22;6448;48.916;8.990;2023-06-10T01:46:01;24.30;41.20
12769;DHT22;6448;48.916;8.990;2023-06-10T01:47:04;24.20;41.20
12769;DHT22;6448;48.916;8.990;2023-06-10T01:48:05;24.20;41.20
12769;DHT22;6448;48.916;8.990;2023-06-10T01:49:07;24.20;41.20
12769;DHT22;6448;48.916;8.990;2023-06-10T01:50:09;24.20;41.20
12769;DHT22;6448;48.916;8.990;2023-06-10T01:51:11;24.20;41.20
12769;DHT22;6448;48.916;8.990;2023-06-10T01:52:13;24.20;41.20
12769;DHT22;6448;48.916;8.990;2023-06-10T01:53:15;24.30;41.30
12769;DHT22;6448;48.916;8.990;2023-06-10T01:54:15;24.10;41.20
12769;DHT22;6448;48.916;8.990;2023-06-10T01:55:18;24.10;41.20
12769;DHT22;6448;48.916;8.990;2023-06-10T01:56:18;24.10;41.20
12769;DHT22;6448;48.916;8.990;2023-06-10T01:57:21;24.10;41.20
12769;DHT22;6448;48.916;8.990;2023-06-10T01:58:21;24.10;41.20
12769;DHT22;6448;48.916;8.990;2023-06-10T01:59:23;24.10;41.20
12769;DHT22;6448;48.916;8.990;2023-06-10T02:00:24;24.10;41.20
12769;DHT22;6448;48.916;8.990;2023-06-10T02:01:26;24.10;41.30
12769;DHT22;6448;48.916;8.990;2023-06-10T02:02:27;24.00;41.20
12769;DHT22;6448;48.916;8.990;2023-06-10T02:03:28;24.10;41.20
12769;DHT22;6448;48.916;8.990;2023-06-10T02:04:29;24.00;41.20
12769;DHT22;6448;48.916;8.990;2023-06-10T02:05:33;24.00;41.10
12769;DHT22;6448;48.916;8.990;2023-06-10T02:06:34;24.00;41.20
12769;DHT22;6448;48.916;8.990;2023-06-10T02:07:39;24.00;41.10
12769;DHT22;6448;48.916;8.990;2023-06-10T02:08:40;24.00;41.10
12769;DHT22;6448;48.916;8.990;2023-06-10T02:09:42;24.00;41.10
12769;DHT22;6448;48.916;8.990;2023-06-10T02:10:43;24.00;41.10
12769;DHT22;6448;48.916;8.990;2023-06-10T02:11:45;24.00;41.10
12769;DHT22;6448;48.916;8.990;2023-06-10T02:12:46;24.00;41.10
12769;DHT22;6448;48.916;8.990;2023-06-10T02:13:47;24.00;41.10
12769;DHT22;6448;48.916;8.990;2023-06-10T02:14:48;23.90;41.10
12769;DHT22;6448;48.916;8.990;2023-06-10T02:15:52;23.90;41.20
12769;DHT22;6448;48.916;8.990;2023-06-10T02:16:54;23.90;41.20
12769;DHT22;6448;48.916;8.990;2023-06-10T02:17:57;23.90;41.30
12769;DHT22;6448;48.916;8.990;2023-06-10T02:18:59;23.90;41.30
12769;DHT22;6448;48.916;8.990;2023-06-10T02:20:02;23.80;41.40
12769;DHT22;6448;48.916;8.990;2023-06-10T02:21:07;23.80;41.40
12769;DHT22;6448;48.916;8.990;2023-06-10T02:22:08;23.80;41.50
12769;DHT22;6448;48.916;8.990;2023-06-10T02:23:11;23.80;41.60
12769;DHT22;6448;48.916;8.990;2023-06-10T02:24:12;23.80;41.60
12769;DHT22;6448;48.916;8.990;2023-06-10T02:25:14;23.80;41.80
12769;DHT22;6448;48.916;8.990;2023-06-10T02:26:14;23.80;41.80
12769;DHT22;6448;48.916;8.990;2023-06-10T02:27:17;23.80;41.90
12769;DHT22;6448;48.916;8.990;2023-06-10T02:28:18;23.80;41.90
12769;DHT22;6448;48.916;8.990;2023-06-10T02:29:20;23.70;41.80
12769;DHT22;6448;48.916;8.990;2023-06-10T02:30:21;23.70;41.90
12769;DHT22;6448;48.916;8.990;2023-06-10T02:31:22;23.70;41.90
12769;DHT22;6448;48.916;8.990;2023-06-10T02:32:26;23.70;42.00
12769;DHT22;6448;48.916;8.990;2023-06-10T02:33:27;23.60;41.90
12769;DHT22;6448;48.916;8.990;2023-06-10T02:34:29;23.70;42.10
12769;DHT22;6448;48.916;8.990;2023-06-10T02:35:31;23.60;42.00
12769;DHT22;6448;48.916;8.990;2023-06-10T02:36:32;23.60;42.10
12769;DHT22;6448;48.916;8.990;2023-06-10T02:37:36;23.60;42.10
12769;DHT22;6448;48.916;8.990;2023-06-10T02:38:39;23.60;42.10
12769;DHT22;6448;48.916;8.990;2023-06-10T02:39:40;23.60;42.10
12769;DHT22;6448;48.916;8.990;2023-06-10T02:40:45;23.60;42.10
12769;DHT22;6448;48.916;8.990;2023-06-10T02:41:47;23.60;42.10
12769;DHT22;6448;48.916;8.990;2023-06-10T02:42:50;23.50;42.00
12769;DHT22;6448;48.916;8.990;2023-06-10T02:43:52;23.60;42.00
12769;DHT22;6448;48.916;8.990;2023-06-10T02:44:53;23.50;42.00
12769;DHT22;6448;48.916;8.990;2023-06-10T02:46:05;23.50;41.90
12769;DHT22;6448;48.916;8.990;2023-06-10T02:47:07;23.50;41.90
12769;DHT22;6448;48.916;8.990;2023-06-10T02:48:09;23.50;41.90
12769;DHT22;6448;48.916;8.990;2023-06-10T02:49:11;23.50;41.90
12769;DHT22;6448;48.916;8.990;2023-06-10T02:50:12;23.50;42.00
12769;DHT22;6448;48.916;8.990;2023-06-10T02:51:24;23.40;42.00
12769;DHT22;6448;48.916;8.990;2023-06-10T02:52:31;23.40;42.00
12769;DHT22;6448;48.916;8.990;2023-06-10T02:53:33;23.40;42.00
12769;DHT22;6448;48.916;8.990;2023-06-10T02:54:41;23.40;42.00
12769;DHT22;6448;48.916;8.990;2023-06-10T02:55:44;23.40;42.00
12769;DHT22;6448;48.916;8.990;2023-06-10T02:56:48;23.40;42.00
12769;DHT22;6448;48.916;8.990;2023-06-10T02:57:55;23.40;42.00
12769;DHT22;6448;48.916;8.990;2023-06-10T02:58:56;23.40;42.00
12769;DHT22;6448;48.916;8.990;2023-06-10T03:00:00;23.40;42.10
12769;DHT22;6448;48.916;8.990;2023-06-10T03:01:04;23.30;42.10
12769;DHT22;6448;48.916;8.990;2023-06-10T03:02:14;23.30;42.10
12769;DHT22;6448;48.916;8.990;2023-06-10T03:03:23;23.30;42.20
12769;DHT22;6448;48.916;8.990;2023-06-10T03:04:34;23.30;42.30
12769;DHT22;6448;48.916;8.990;2023-06-10T03:05:40;23.30;42.40
12769;DHT22;6448;48.916;8.990;2023-06-10T03:06:42;23.30;42.40
12769;DHT22;6448;48.916;8.990;2023-06-10T03:07:52;23.30;42.50
12769;DHT22;6448;48.916;8.990;2023-06-10T03:08:54;23.20;42.50
12769;DHT22;6448;48.916;8.990;2023-06-10T03:09:56;23.20;42.50
12769;DHT22;6448;48.916;8.990;2023-06-10T03:10:59;23.20;42.60
12769;DHT22;6448;48.916;8.990;2023-06-10T03:12:00;23.20;42.50
12769;DHT22;6448;48.916;8.990;2023-06-10T03:13:07;23.20;42.50
12769;DHT22;6448;48.916;8.990;2023-06-10T03:14:07;23.20;42.50
12769;DHT22;6448;48.916;8.990;2023-06-10T03:15:09;23.20;42.50
12769;DHT22;6448;48.916;8.990;2023-06-10T03:16:10;23.10;42.40
12769;DHT22;6448;48.916;8.990;2023-06-10T03:17:13;23.10;42.50
12769;DHT22;6448;48.916;8.990;2023-06-10T03:18:16;23.10;42.50
12769;DHT22;6448;48.916;8.990;2023-06-10T03:19:18;23.10;42.50
12769;DHT22;6448;48.916;8.990;2023-06-10T03:20:23;23.10;42.50
12769;DHT22;6448;48.916;8.990;2023-06-10T03:21:26;23.10;42.50
12769;DHT22;6448;48.916;8.990;2023-06-10T03:22:30;23.10;42.50
12769;DHT22;6448;48.916;8.990;2023-06-10T03:23:40;23.10;42.50
12769;DHT22;6448;48.916;8.990;2023-06-10T03:24:41;23.10;42.50
12769;DHT22;6448;48.916;8.990;2023-06-10T03:25:46;23.10;42.50
12769;DHT22;6448;48.916;8.990;2023-06-10T03:26:50;23.10;42.50
12769;DHT22;6448;48.916;8.990;2023-06-10T03:27:52;23.10;42.50
12769;DHT22;6448;48.916;8.990;2023-06-10T03:28:53;23.00;42.50
12769;DHT22;6448;48.916;8.990;2023-06-10T03:29:57;23.00;42.60
12769;DHT22;6448;48.916;8.990;2023-06-10T03:30:59;23.00;42.50
12769;DHT22;6448;48.916;8.990;2023-06-10T03:32:02;23.00;42.50
12769;DHT22;6448;48.916;8.990;2023-06-10T03:33:04;23.00;42.60
12769;DHT22;6448;48.916;8.990;2023-06-10T03:34:06;23.00;42.60
12769;DHT22;6448;48.916;8.990;2023-06-10T03:35:08;23.00;42.60
12769;DHT22;6448;48.916;8.990;2023-06-10T03:36:11;23.00;42.60
12769;DHT22;6448;48.916;8.990;2023-06-10T03:37:13;23.00;42.60
12769;DHT22;6448;48.916;8.990;2023-06-10T03:38:14;22.90;42.60
12769;DHT22;6448;48.916;8.990;2023-06-10T03:39:17;22.90;42.60
12769;DHT22;6448;48.916;8.990;2023-06-10T03:40:18;22.90;42.60
12769;DHT22;6448;48.916;8.990;2023-06-10T03:41:23;23.00;42.70
12769;DHT22;6448;48.916;8.990;2023-06-10T03:42:25;22.90;42.60
12769;DHT22;6448;48.916;8.990;2023-06-10T03:43:27;22.90;42.70
12769;DHT22;6448;48.916;8.990;2023-06-10T03:44:28;22.90;42.70
12769;DHT22;6448;48.916;8.990;2023-06-10T03:45:30;22.80;42.60
12769;DHT22;6448;48.916;8.990;2023-06-10T03:46:31;22.90;42.70
12769;DHT22;6448;48.916;8.990;2023-06-10T03:47:33;22.90;42.80
12769;DHT22;6448;48.916;8.990;2023-06-10T03:48:35;22.90;43.20
12769;DHT22;6448;48.916;8.990;2023-06-10T03:49:37;22.80;42.80
12769;DHT22;6448;48.916;8.990;2023-06-10T03:50:39;22.80;42.80
12769;DHT22;6448;48.916;8.990;2023-06-10T03:51:40;22.80;42.90
12769;DHT22;6448;48.916;8.990;2023-06-10T03:52:42;22.80;43.00
12769;DHT22;6448;48.916;8.990;2023-06-10T03:53:45;22.80;43.10
12769;DHT22;6448;48.916;8.990;2023-06-10T03:54:46;22.80;43.10
12769;DHT22;6448;48.916;8.990;2023-06-10T03:55:48;22.70;43.20
12769;DHT22;6448;48.916;8.990;2023-06-10T03:56:52;22.80;43.30
12769;DHT22;6448;48.916;8.990;2023-06-10T03:57:54;22.70;43.30
12769;DHT22;6448;48.916;8.990;2023-06-10T03:58:55;22.70;43.30
12769;DHT22;6448;48.916;8.990;2023-06-10T03:59:57;22.70;43.50
12769;DHT22;6448;48.916;8.990;2023-06-10T04:00:58;22.70;43.50
12769;DHT22;6448;48.916;8.990;2023-06-10T04:02:07;22.70;43.60
12769;DHT22;6448;48.916;8.990;2023-06-10T04:03:09;22.70;43.70
12769;DHT22;6448;48.916;8.990;2023-06-10T04:04:17;22.70;43.70
12769;DHT22;6448;48.916;8.990;2023-06-10T04:05:19;22.70;43.80
12769;DHT22;6448;48.916;8.990;2023-06-10T04:06:23;22.70;43.90
12769;DHT22;6448;48.916;8.990;2023-06-10T04:07:28;22.60;43.90
12769;DHT22;6448;48.916;8.990;2023-06-10T04:08:31;22.60;44.00
12769;DHT22;6448;48.916;8.990;2023-06-10T04:09:34;22.60;44.10
12769;DHT22;6448;48.916;8.990;2023-06-10T04:10:36;22.60;44.20
12769;DHT22;6448;48.916;8.990;2023-06-10T04:11:37;22.70;44.20
12769;DHT22;6448;48.916;8.990;2023-06-10T04:12:41;22.60;44.30
12769;DHT22;6448;48.916;8.990;2023-06-10T04:13:42;22.60;44.30
12769;DHT22;6448;48.916;8.990;2023-06-10T04:14:44;22.80;44.60
12769;DHT22;6448;48.916;8.990;2023-06-10T04:15:46;22.60;44.70
12769;DHT22;6448;48.916;8.990;2023-06-10T04:16:51;22.60;44.70
12769;DHT22;6448;48.916;8.990;2023-06-10T04:17:52;22.60;44.70
12769;DHT22;6448;48.916;8.990;2023-06-10T04:18:57;22.60;44.70
12769;DHT22;6448;48.916;8.990;2023-06-10T04:19:58;22.70;44.80
12769;DHT22;6448;48.916;8.990;2023-06-10T04:21:01;22.60;44.80
12769;DHT22;6448;48.916;8.990;2023-06-10T04:22:03;22.60;44.80
12769;DHT22;6448;48.916;8.990;2023-06-10T04:23:06;22.60;44.80
12769;DHT22;6448;48.916;8.990;2023-06-10T04:24:08;22.60;44.80
12769;DHT22;6448;48.916;8.990;2023-06-10T04:25:10;22.60;44.80
12769;DHT22;6448;48.916;8.990;2023-06-10T04:26:11;22.60;44.80
12769;DHT22;6448;48.916;8.990;2023-06-10T04:27:13;22.60;44.90
12769;DHT22;6448;48.916;8.990;2023-06-10T04:28:15;22.60;44.90
12769;DHT22;6448;48.916;8.990;2023-06-10T04:29:18;22.60;45.00
12769;DHT22;6448;48.916;8.990;2023-06-10T04:30:19;22.60;45.00
12769;DHT22;6448;48.916;8.990;2023-06-10T04:31:21;22.60;45.10
12769;DHT22;6448;48.916;8.990;2023-06-10T04:32:23;22.60;45.20
12769;DHT22;6448;48.916;8.990;2023-06-10T04:33:25;22.60;45.30
12769;DHT22;6448;48.916;8.990;2023-06-10T04:34:26;22.60;45.30
12769;DHT22;6448;48.916;8.990;2023-06-10T04:35:29;22.60;45.30
12769;DHT22;6448;48.916;8.990;2023-06-10T04:36:32;22.60;45.20
12769;DHT22;6448;48.916;8.990;2023-06-10T04:37:34;22.60;45.20
12769;DHT22;6448;48.916;8.990;2023-06-10T04:38:35;22.60;45.20
12769;DHT22;6448;48.916;8.990;2023-06-10T04:39:37;22.60;45.10
12769;DHT22;6448;48.916;8.990;2023-06-10T04:40:38;22.60;45.10
12769;DHT22;6448;48.916;8.990;2023-06-10T04:41:41;22.60;45.20
12769;DHT22;6448;48.916;8.990;2023-06-10T04:42:42;22.60;45.20
12769;DHT22;6448;48.916;8.990;2023-06-10T04:43:46;22.60;45.30
12769;DHT22;6448;48.916;8.990;2023-06-10T04:44:47;22.60;45.40
12769;DHT22;6448;48.916;8.990;2023-06-10T04:45:49;22.60;45.30
12769;DHT22;6448;48.916;8.990;2023-06-10T04:46:50;22.60;45.40
12769;DHT22;6448;48.916;8.990;2023-06-10T04:47:52;22.60;45.40
12769;DHT22;6448;48.916;8.990;2023-06-10T04:48:56;22.60;45.40
12769;DHT22;6448;48.916;8.990;2023-06-10T04:49:59;22.60;45.60
12769;DHT22;6448;48.916;8.990;2023-06-10T04:51:00;22.60;45.60
12769;DHT22;6448;48.916;8.990;2023-06-10T04:52:03;22.60;45.60
12769;DHT22;6448;48.916;8.990;2023-06-10T04:53:09;22.60;45.70
12769;DHT22;6448;48.916;8.990;2023-06-10T04:54:12;22.60;45.70
12769;DHT22;6448;48.916;8.990;2023-06-10T04:55:13;22.60;45.80
12769;DHT22;6448;48.916;8.990;2023-06-10T04:56:15;22.60;45.80
12769;DHT22;6448;48.916;8.990;2023-06-10T04:57:16;22.60;45.80
12769;DHT22;6448;48.916;8.990;2023-06-10T04:58:19;22.60;45.90
12769;DHT22;6448;48.916;8.990;2023-06-10T04:59:21;22.60;46.00
12769;DHT22;6448;48.916;8.990;2023-06-10T05:00:22;22.60;46.10
12769;DHT22;6448;48.916;8.990;2023-06-10T05:01:23;22.60;46.10
12769;DHT22;6448;48.916;8.990;2023-06-10T05:02:25;22.60;46.30
12769;DHT22;6448;48.916;8.990;2023-06-10T05:03:26;22.60;46.30
12769;DHT22;6448;48.916;8.990;2023-06-10T05:04:28;22.70;46.40
12769;DHT22;6448;48.916;8.990;2023-06-10T05:05:28;22.70;46.40
12769;DHT22;6448;48.916;8.990;2023-06-10T05:06:30;22.70;46.40
12769;DHT22;6448;48.916;8.990;2023-06-10T05:07:31;22.70;46.50
12769;DHT22;6448;48.916;8.990;2023-06-10T05:08:33;22.70;46.50
12769;DHT22;6448;48.916;8.990;2023-06-10T05:09:34;22.70;46.50
12769;DHT22;6448;48.916;8.990;2023-06-10T05:10:36;22.70;46.60
12769;DHT22;6448;48.916;8.990;2023-06-10T05:11:37;22.70;46.50
12769;DHT22;6448;48.916;8.990;2023-06-10T05:12:39;22.70;46.60
12769;DHT22;6448;48.916;8.990;2023-06-10T05:13:41;22.70;46.60
12769;DHT22;6448;48.916;8.990;2023-06-10T05:14:44;22.70;46.50
12769;DHT22;6448;48.916;8.990;2023-06-10T05:15:45;22.70;46.60
12769;DHT22;6448;48.916;8.990;2023-06-10T05:16:47;22.70;46.50
12769;DHT22;6448;48.916;8.990;2023-06-10T05:17:48;22.70;46.50
12769;DHT22;6448;48.916;8.990;2023-06-10T05:18:50;22.80;46.60
12769;DHT22;6448;48.916;8.990;2023-06-10T05:19:52;22.80;46.60
12769;DHT22;6448;48.916;8.990;2023-06-10T05:20:54;22.70;46.50
12769;DHT22;6448;48.916;8.990;2023-06-10T05:21:55;22.80;46.70
12769;DHT22;6448;48.916;8.990;2023-06-10T05:22:56;22.80;46.70
12769;DHT22;6448;48.916;8.990;2023-06-10T05:23:57;22.80;46.70
12769;DHT22;6448;48.916;8.990;2023-06-10T05:24:59;22.80;46.70
12769;DHT22;6448;48.916;8.990;2023-06-10T05:26:00;22.80;46.70
12769;DHT22;6448;48.916;8.990;2023-06-10T05:27:02;22.80;46.70
12769;DHT22;6448;48.916;8.990;2023-06-10T05:28:03;22.80;46.80
12769;DHT22;6448;48.916;8.990;2023-06-10T05:29:07;22.70;46.60
12769;DHT22;6448;48.916;8.990;2023-06-10T05:30:10;22.90;46.70
12769;DHT22;6448;48.916;8.990;2023-06-10T05:31:12;22.90;46.70
12769;DHT22;6448;48.916;8.990;2023-06-10T05:32:13;22.90;46.70
12769;DHT22;6448;48.916;8.990;2023-06-10T05:33:15;22.90;46.50
12769;DHT22;6448;48.916;8.990;2023-06-10T05:34:15;22.90;46.40
12769;DHT22;6448;48.916;8.990;2023-06-10T05:35:17;22.90;46.50
12769;DHT22;6448;48.916;8.990;2023-06-10T05:36:18;22.90;46.40
12769;DHT22;6448;48.916;8.990;2023-06-10T05:37:20;22.90;46.40
12769;DHT22;6448;48.916;8.990;2023-06-10T05:38:20;22.90;46.40
12769;DHT22;6448;48.916;8.990;2023-06-10T05:39:22;22.90;46.40
12769;DHT22;6448;48.916;8.990;2023-06-10T05:40:23;22.90;46.40
12769;DHT22;6448;48.916;8.990;2023-06-10T05:41:25;23.00;46.40
12769;DHT22;6448;48.916;8.990;2023-06-10T05:42:26;23.00;46.40
12769;DHT22;6448;48.916;8.990;2023-06-10T05:43:27;22.90;46.60
12769;DHT22;6448;48.916;8.990;2023-06-10T05:44:28;23.00;46.80
12769;DHT22;6448;48.916;8.990;2023-06-10T05:45:31;23.00;46.90
12769;DHT22;6448;48.916;8.990;2023-06-10T05:46:32;23.00;47.00
12769;DHT22;6448;48.916;8.990;2023-06-10T05:47:34;23.10;47.10
12769;DHT22;6448;48.916;8.990;2023-06-10T05:48:34;23.10;47.10
12769;DHT22;6448;48.916;8.990;2023-06-10T05:49:36;23.10;47.20
12769;DHT22;6448;48.916;8.990;2023-06-10T05:50:37;23.10;47.40
12769;DHT22;6448;48.916;8.990;2023-06-10T05:51:40;23.10;47.40
12769;DHT22;6448;48.916;8.990;2023-06-10T05:52:41;23.10;47.60
12769;DHT22;6448;48.916;8.990;2023-06-10T05:53:43;23.10;47.70
12769;DHT22;6448;48.916;8.990;2023-06-10T05:54:43;23.10;47.80
12769;DHT22;6448;48.916;8.990;2023-06-10T05:55:46;23.10;47.80
12769;DHT22;6448;48.916;8.990;2023-06-10T05:56:46;23.10;47.90
12769;DHT22;6448;48.916;8.990;2023-06-10T05:57:58;23.10;48.10
12769;DHT22;6448;48.916;8.990;2023-06-10T05:59:00;23.10;48.00
12769;DHT22;6448;48.916;8.990;2023-06-10T06:00:02;23.10;48.00
12769;DHT22;6448;48.916;8.990;2023-06-10T06:01:14;23.20;48.10
12769;DHT22;6448;48.916;8.990;2023-06-10T06:02:16;23.20;48.10
12769;DHT22;6448;48.916;8.990;2023-06-10T06:03:17;23.20;48.10
12769;DHT22;6448;48.916;8.990;2023-06-10T06:04:19;23.20;48.20
12769;DHT22;6448;48.916;8.990;2023-06-10T06:05:20;23.20;48.20
12769;DHT22;6448;48.916;8.990;2023-06-10T06:06:22;23.20;48.30
12769;DHT22;6448;48.916;8.990;2023-06-10T06:07:24;23.20;48.30
12769;DHT22;6448;48.916;8.990;2023-06-10T06:08:25;23.20;48.40
12769;DHT22;6448;48.916;8.990;2023-06-10T06:09:26;23.20;48.50
12769;DHT22;6448;48.916;8.990;2023-06-10T06:10:27;23.20;48.40
12769;DHT22;6448;48.916;8.990;2023-06-10T06:11:29;23.20;48.30
12769;DHT22;6448;48.916;8.990;2023-06-10T06:12:30;23.30;48.30
12769;DHT22;6448;48.916;8.990;2023-06-10T06:13:31;23.30;48.30
12769;DHT22;6448;48.916;8.990;2023-06-10T06:14:32;23.30;48.30
12769;DHT22;6448;48.916;8.990;2023-06-10T06:15:34;23.30;48.30
12769;DHT22;6448;48.916;8.990;2023-06-10T06:16:36;23.30;48.30
12769;DHT22;6448;48.916;8.990;2023-06-10T06:17:38;23.30;48.30
12769;DHT22;6448;48.916;8.990;2023-06-10T06:18:38;23.30;48.30
12769;DHT22;6448;48.916;8.990;2023-06-10T06:19:40;23.30;48.30
12769;DHT22;6448;48.916;8.990;2023-06-10T06:20:41;23.30;48.40
12769;DHT22;6448;48.916;8.990;2023-06-10T06:21:43;23.40;48.60
12769;DHT22;6448;48.916;8.990;2023-06-10T06:22:44;23.40;48.60
12769;DHT22;6448;48.916;8.990;2023-06-10T06:23:45;23.40;48.60
12769;DHT22;6448;48.916;8.990;2023-06-10T06:24:46;23.40;48.50
12769;DHT22;6448;48.916;8.990;2023-06-10T06:25:49;23.40;48.40
12769;DHT22;6448;48.916;8.990;2023-06-10T06:26:50;23.40;48.30
12769;DHT22;6448;48.916;8.990;2023-06-10T06:27:52;23.40;48.40
12769;DHT22;6448;48.916;8.990;2023-06-10T06:28:53;23.40;48.40
12769;DHT22;6448;48.916;8.990;2023-06-10T06:29:54;23.40;48.40
12769;DHT22;6448;48.916;8.990;2023-06-10T06:30:55;23.50;48.50
12769;DHT22;6448;48.916;8.990;2023-06-10T06:31:58;23.50;48.40
12769;DHT22;6448;48.916;8.990;2023-06-10T06:32:59;23.50;48.30
12769;DHT22;6448;48.916;8.990;2023-06-10T06:34:01;23.50;48.20
12769;DHT22;6448;48.916;8.990;2023-06-10T06:35:02;23.50;48.30
12769;DHT22;6448;48.916;8.990;2023-06-10T06:36:06;23.50;48.30
12769;DHT22;6448;48.916;8.990;2023-06-10T06:37:07;23.60;48.30
12769;DHT22;6448;48.916;8.990;2023-06-10T06:38:11;23.60;48.30
12769;DHT22;6448;48.916;8.990;2023-06-10T06:39:13;23.60;48.30
12769;DHT22;6448;48.916;8.990;2023-06-10T06:42:07;23.50;48.20
12769;DHT22;6448;48.916;8.990;2023-06-10T06:43:37;23.70;48.30